Get Adobe Flash player

РУС

ENG

 
  Pireps - S7
 

Рейс SBI957

  • Выполнял: Dmitriy Volkov
  • Аэропорт отправления: Mineralnie Vodi (URMM)
  • Аэропорт назначения: Domodedovo Airport (UUDD)
  • Тип ВС: A321-200 (VQ-BQH)
  • Время полёта: 02.22
  • Дата полёта: 12.08.2017
  • Маршрут: SULOD R806 KOLBA R11 PT B119 FE
  • Статус: Одобрен

Детали полёта
Gross Revenue:
(143 load / $ 800.00 per unit
$ 114,400.00
Fuel Cost:
(-2609 fuel used @ 5.1 / unit)
($ -13,305.90)


Дополнительная информация о полёте:

Лог

Aircraft Used in flight is Airbus A321 Sharklets - S7 Airlines VP-BPC
22:47 Boarding
22:47 Beacon Lights ON at 1060 AGL
22:47 Brakes are On
22:49 Navigation Lights ON at 1060 AGL
22:50 In Air Refuel Suspected
23:03 Brakes are Released
23:04 Engine 2 Started
23:05 Engine 1 Started
23:06 Brakes are On
23:07Flaps 2 Selected at 1060ft and 0kts
23:08 Brakes are Released
23:08 Taxi Lights ON at 1060 AGL
23:13 Landing Lights ON at 1060 AGL
23:13 Strobe Lights ON at 1060 AGL
23:13 Brakes are On
23:14 Brakes are Released
23:14 You Took off @ 166 Knots and Flaps at Position 2
Departure Weather
URMM 112000Z 11008MPS 9999 NSC 23/11 Q1013 R12/090070 NOSIG RMK QFE731/0975rn
23:14 Landing Gear Up @ 180 Knots and 1140 Feet
23:15 Taxi Lights OFF at 1160 AGL
23:15Flaps Retracted at 2970ft and 208kts
23:16 Landing Lights OFF at 4650 AGL
23:36 TOC Reached
00:55 Landing Lights ON at 9910 AGL
00:58Flaps 1 Selected at 4840ft and 217kts
01:01Flaps 3 Selected at 2480ft and 196kts
01:01 Landing Gear Down @ 194 Knots and 2370 Feet
01:01Flaps 4 Selected at 2240ft and 189kts
01:01 Taxi Lights ON at 2210 AGL
01:01Flaps 5 Selected at 2120ft and 182kts
01:03 You Landed @ 139 Knots and with -150 Vertical Speed
Arrival Weather
UUDD 111930Z 33003MPS CAVOK 20/16 Q1016 R32L/290095 R32R/010095 NOSIGrn
01:05 Landing Lights OFF at 600 AGL
01:05 Strobe Lights OFF at 600 AGL
01:05Flaps Retracted at 600ft and 25kts
01:08 Brakes are On
01:08 Engine 1 Stoped
01:08 Engine 2 Stoped
01:09 Brakes are Released
01:09 Taxi Lights OFF at 600 AGL
01:09 Brakes are On
Pirep logged with S7 Tracking 1.0.0.13



Общая оценка полета : 100%




Route Map



 
 
   
 
Новости

18.08.2017 - Обновление S7 pad

С выходом версии P3d v4 наш клиент S7 pad мог не работать.
Нами проделана работа по оптимизации клиента и теперь доступна версия для P3d V4.
скачать новую версию клиента и установить FSUIPC5. Все есть в архиве.

   
 
Авторизация






Регистрация

Восстановить пароль?

Мы в соц. сетях

      


   
 

   
 



   
 


Яндекс.Метрика

www.va-s7.ru 2011-2017
Все права защищены.



Минуточку внимания!
Мы не имеем отношения к торговым маркам "S7" и "Globus" и их представителям.
Эмблемы на сайте являются собственностью соответствующих компаний.

аэронавигационная метеорологическая и любая другая информация с данного ресурса ни в коем случае не должна использоваться для реальных полетов